createdAt,value
2022-12-13T00:00:36.226Z,96.28
2022-12-13T00:01:36.255Z,96.22
2022-12-13T00:02:36.262Z,96.39
2022-12-13T00:03:36.294Z,96.01
2022-12-13T00:04:36.207Z,96.28
2022-12-13T00:05:36.235Z,96.75
2022-12-13T00:06:36.922Z,96.54
2022-12-13T00:07:36.188Z,96.96
2022-12-13T00:08:36.173Z,97.53
2022-12-13T00:09:36.180Z,98.07
2022-12-13T00:10:36.313Z,97.85
2022-12-13T00:11:36.177Z,97.96
2022-12-13T00:12:36.147Z,97.64
2022-12-13T00:13:36.155Z,97.47
2022-12-13T00:14:36.163Z,97.96
2022-12-13T00:15:36.141Z,97.96
2022-12-13T00:16:36.178Z,97.96
2022-12-13T00:17:36.118Z,98.02
2022-12-13T00:18:36.115Z,98.24
2022-12-13T00:19:36.114Z,97.91
2022-12-13T00:20:36.114Z,97.34
2022-12-13T00:21:36.290Z,97.13
2022-12-13T00:22:36.922Z,96.71
2022-12-13T00:23:36.088Z,96.18
2022-12-13T00:24:39.041Z,95.82
2022-12-13T00:25:37.068Z,95.82
2022-12-13T00:26:36.063Z,95.61
2022-12-13T00:27:36.074Z,95.39
2022-12-13T00:28:36.045Z,94.76
2022-12-13T00:29:36.035Z,94.45
2022-12-13T00:30:36.067Z,94.23
2022-12-13T00:32:37.049Z,94.87
2022-12-13T00:33:36.017Z,94.34
2022-12-13T00:34:36.008Z,94.97
2022-12-13T00:35:35.999Z,94.40
2022-12-13T00:36:35.993Z,93.91
2022-12-13T00:37:36.013Z,93.45
2022-12-13T00:38:35.994Z,92.43
2022-12-13T00:39:35.973Z,93.07
2022-12-13T00:40:35.981Z,92.90
2022-12-13T00:41:35.965Z,93.43
2022-12-13T00:42:35.967Z,94.38
2022-12-13T00:43:35.950Z,94.91
2022-12-13T00:44:35.973Z,95.17
2022-12-13T00:45:35.933Z,95.37
2022-12-13T00:46:35.929Z,95.80
2022-12-13T00:47:35.925Z,95.69
2022-12-13T00:48:35.917Z,96.33
2022-12-13T00:49:35.913Z,96.64
2022-12-13T00:50:35.918Z,97.07
2022-12-13T00:51:35.898Z,96.33
2022-12-13T00:52:35.886Z,95.59
2022-12-13T00:53:35.881Z,95.90
2022-12-13T00:54:35.880Z,95.90
2022-12-13T00:55:35.904Z,95.80
2022-12-13T00:56:35.872Z,95.59
2022-12-13T00:57:35.859Z,95.44
2022-12-13T00:58:35.846Z,94.85
2022-12-13T00:59:35.838Z,95.37
2022-12-13T01:00:35.842Z,95.59
2022-12-13T01:01:35.947Z,95.27
2022-12-13T01:02:35.835Z,95.27
2022-12-13T01:03:35.895Z,95.90
2022-12-13T01:04:35.825Z,95.90
2022-12-13T01:06:13.012Z,95.80
2022-12-13T01:06:36.797Z,95.95
2022-12-13T01:07:35.788Z,96.33
2022-12-13T01:08:35.797Z,96.48
2022-12-13T01:09:35.792Z,96.58
2022-12-13T01:10:35.780Z,96.69
2022-12-13T01:11:35.772Z,96.48
2022-12-13T01:12:35.788Z,96.69
2022-12-13T01:13:35.761Z,96.48
2022-12-13T01:14:35.776Z,96.80
2022-12-13T01:15:35.761Z,96.48
2022-12-13T01:16:35.786Z,96.54
2022-12-13T01:17:35.753Z,95.80
2022-12-13T01:18:35.813Z,95.69
2022-12-13T01:19:35.720Z,94.89
2022-12-13T01:20:35.731Z,94.68
2022-12-13T01:21:35.710Z,95.10
2022-12-13T01:22:35.694Z,95.31
2022-12-13T01:23:36.031Z,95.42
2022-12-13T01:24:35.690Z,95.42
2022-12-13T01:25:35.716Z,95.42
2022-12-13T01:26:35.686Z,94.93
2022-12-13T01:27:35.679Z,95.10
2022-12-13T01:28:35.655Z,95.63
2022-12-13T01:29:35.668Z,95.53
2022-12-13T01:30:35.685Z,95.31
2022-12-13T01:31:35.660Z,94.93
2022-12-13T01:32:42.658Z,94.93
2022-12-13T01:33:35.624Z,95.99
2022-12-13T01:34:35.619Z,95.57
2022-12-13T01:35:35.609Z,96.20
2022-12-13T01:36:38.318Z,96.62
2022-12-13T01:37:37.526Z,96.62
2022-12-13T01:38:37.860Z,96.20
2022-12-13T01:39:38.129Z,96.52
2022-12-13T01:40:38.737Z,95.89
2022-12-13T01:41:35.578Z,95.89
2022-12-13T01:42:35.589Z,95.78
2022-12-13T01:43:35.570Z,95.25
2022-12-13T01:44:35.551Z,95.46
2022-12-13T01:45:35.549Z,95.89
2022-12-13T01:46:35.595Z,95.67
2022-12-13T01:47:35.538Z,96.09
2022-12-13T01:48:35.550Z,96.05
2022-12-13T01:49:35.525Z,95.53
2022-12-13T01:50:35.512Z,95.57
2022-12-13T01:51:35.517Z,95.78
2022-12-13T01:52:35.503Z,95.89
2022-12-13T01:53:35.501Z,95.89
2022-12-13T01:54:35.514Z,95.99
2022-12-13T01:55:41.653Z,95.67
2022-12-13T01:56:36.477Z,96.46
2022-12-13T01:57:36.226Z,96.88
2022-12-13T01:58:35.472Z,96.56
2022-12-13T01:59:35.478Z,96.35
2022-12-13T02:00:35.472Z,96.14
2022-12-13T02:01:35.464Z,96.14
2022-12-13T02:02:35.435Z,96.56
2022-12-13T02:03:35.431Z,96.67
2022-12-13T02:04:35.496Z,96.88
2022-12-13T02:05:36.466Z,96.46
2022-12-13T02:06:35.448Z,96.35
2022-12-13T02:07:35.406Z,96.78
2022-12-13T02:08:35.619Z,96.88
2022-12-13T02:09:35.421Z,96.50
2022-12-13T02:10:35.379Z,96.29
2022-12-13T02:11:35.384Z,96.50
2022-12-13T02:12:35.390Z,96.78
2022-12-13T02:13:35.365Z,96.35
2022-12-13T02:14:35.384Z,96.08
2022-12-13T02:15:35.387Z,96.08
2022-12-13T02:16:35.345Z,96.29
2022-12-13T02:17:35.340Z,96.50
2022-12-13T02:18:36.353Z,96.50
2022-12-13T02:19:35.327Z,96.65
2022-12-13T02:20:35.329Z,97.14
2022-12-13T02:21:35.338Z,96.82
2022-12-13T02:22:35.311Z,96.72
2022-12-13T02:23:35.316Z,96.82
2022-12-13T02:24:35.302Z,96.50
2022-12-13T02:25:35.298Z,96.61
2022-12-13T02:26:35.290Z,96.97
2022-12-13T02:27:35.355Z,97.56
2022-12-13T02:28:36.275Z,97.67
2022-12-13T02:29:35.290Z,97.24
2022-12-13T02:30:35.278Z,96.72
2022-12-13T02:31:35.290Z,96.29
2022-12-13T02:32:35.247Z,96.19
2022-12-13T02:33:35.249Z,96.12
2022-12-13T02:34:35.250Z,96.65
2022-12-13T02:35:35.226Z,97.08
2022-12-13T02:36:36.426Z,97.61
2022-12-13T02:37:35.218Z,97.61
2022-12-13T02:38:35.215Z,98.03
2022-12-13T02:39:35.206Z,98.24
2022-12-13T02:40:35.199Z,98.46
2022-12-13T02:41:35.192Z,98.41
2022-12-13T02:42:35.207Z,98.09
2022-12-13T02:43:35.182Z,97.18
2022-12-13T02:44:35.176Z,97.14
2022-12-13T02:45:35.170Z,97.08
2022-12-13T02:46:35.201Z,97.24
2022-12-13T02:47:35.147Z,97.14
2022-12-13T02:48:36.355Z,96.92
2022-12-13T02:49:35.141Z,96.61
2022-12-13T02:50:35.137Z,95.80
2022-12-13T02:51:35.134Z,95.97
2022-12-13T02:52:35.125Z,95.97
2022-12-13T02:53:35.119Z,95.97
2022-12-13T02:54:35.121Z,95.80
2022-12-13T02:55:35.117Z,96.44
2022-12-13T02:56:35.099Z,96.97
2022-12-13T02:57:35.096Z,97.24
2022-12-13T02:58:35.088Z,96.72
2022-12-13T02:59:35.110Z,96.55
2022-12-13T03:00:35.071Z,96.33
2022-12-13T03:01:40.918Z,96.23
2022-12-13T03:02:36.152Z,95.97
2022-12-13T03:03:35.083Z,96.12
2022-12-13T03:04:35.050Z,96.39
2022-12-13T03:05:35.069Z,96.44
2022-12-13T03:06:35.036Z,96.65
2022-12-13T03:07:35.034Z,96.82
2022-12-13T03:08:35.048Z,96.92
2022-12-13T03:09:35.024Z,96.72
2022-12-13T03:10:35.007Z,96.61
2022-12-13T03:11:35.009Z,95.65
2022-12-13T03:12:34.997Z,95.44
2022-12-13T03:13:34.994Z,94.70
2022-12-13T03:14:35.006Z,95.02
2022-12-13T03:15:34.996Z,95.02
2022-12-13T03:16:34.968Z,95.54
2022-12-13T03:17:34.966Z,95.59
2022-12-13T03:18:34.958Z,95.38
2022-12-13T03:19:34.955Z,95.70
2022-12-13T03:20:34.962Z,95.91
2022-12-13T03:21:34.951Z,95.70
2022-12-13T03:22:34.927Z,96.01
2022-12-13T03:23:34.929Z,95.91
2022-12-13T03:24:34.921Z,95.80
2022-12-13T03:25:34.925Z,95.91
2022-12-13T03:26:34.926Z,96.19
2022-12-13T03:27:34.904Z,96.12
2022-12-13T03:28:34.892Z,95.12
2022-12-13T03:29:34.889Z,94.91
2022-12-13T03:30:34.881Z,94.95
2022-12-13T03:31:34.998Z,95.38
2022-12-13T03:32:34.886Z,95.54
2022-12-13T03:33:34.880Z,95.23
2022-12-13T03:34:44.742Z,94.85
2022-12-13T03:35:45.068Z,95.17
2022-12-13T03:36:35.848Z,95.27
2022-12-13T03:37:34.834Z,95.34
2022-12-13T03:38:34.836Z,95.27
2022-12-13T03:39:34.831Z,94.95
2022-12-13T03:40:34.834Z,95.10
2022-12-13T03:41:34.817Z,95.17
2022-12-13T03:42:34.808Z,95.74
2022-12-13T03:43:34.808Z,95.80
2022-12-13T03:44:34.811Z,95.74
2022-12-13T03:45:34.793Z,95.59
2022-12-13T03:46:34.892Z,95.91
2022-12-13T03:47:34.778Z,95.42
2022-12-13T03:48:34.771Z,95.31
2022-12-13T03:49:35.558Z,95.42
2022-12-13T03:50:34.762Z,95.95
2022-12-13T03:51:34.751Z,95.74
2022-12-13T03:52:34.743Z,95.53
2022-12-13T03:53:34.777Z,95.53
2022-12-13T03:54:34.736Z,96.06
2022-12-13T03:55:34.735Z,96.00
2022-12-13T03:56:34.722Z,95.74
2022-12-13T03:57:34.729Z,95.00
2022-12-13T03:58:36.792Z,94.68
2022-12-13T03:59:34.706Z,94.04
2022-12-13T04:00:34.699Z,93.40
2022-12-13T04:01:34.747Z,93.51
2022-12-13T04:02:34.681Z,94.29
2022-12-13T04:03:34.699Z,94.19
2022-12-13T04:04:34.673Z,95.25
2022-12-13T04:05:34.676Z,95.57
2022-12-13T04:06:34.694Z,95.36
2022-12-13T04:07:34.786Z,95.15
2022-12-13T04:08:34.766Z,95.36
2022-12-13T04:09:34.651Z,95.67
2022-12-13T04:10:34.639Z,95.57
2022-12-13T04:11:34.652Z,95.15
2022-12-13T04:12:34.648Z,95.04
2022-12-13T04:13:34.666Z,95.15
2022-12-13T04:14:34.607Z,95.15
2022-12-13T04:15:34.614Z,95.25
2022-12-13T04:16:34.657Z,95.47
2022-12-13T04:17:34.594Z,95.67
2022-12-13T04:18:34.582Z,95.53
2022-12-13T04:19:34.592Z,95.21
2022-12-13T04:20:34.579Z,94.78
2022-12-13T04:21:34.570Z,94.46
2022-12-13T04:22:34.557Z,94.40
2022-12-13T04:23:34.581Z,94.36
2022-12-13T04:24:34.550Z,95.36
2022-12-13T04:25:34.546Z,95.31
2022-12-13T04:26:34.531Z,95.36
2022-12-13T04:27:34.530Z,95.67
2022-12-13T04:28:34.535Z,95.63
2022-12-13T04:29:35.098Z,95.21
2022-12-13T04:30:34.521Z,94.15
2022-12-13T04:31:34.541Z,94.25
2022-12-13T04:32:34.484Z,94.36
2022-12-13T04:33:34.489Z,93.51
2022-12-13T04:34:37.645Z,94.29
2022-12-13T04:35:34.479Z,94.82
2022-12-13T04:36:34.484Z,94.36
2022-12-13T04:37:34.461Z,94.51
2022-12-13T04:38:34.452Z,94.51
2022-12-13T04:39:34.792Z,95.08
2022-12-13T04:40:34.440Z,95.29
2022-12-13T04:41:34.799Z,95.51
2022-12-13T04:42:34.449Z,95.19
2022-12-13T04:43:34.425Z,95.15
2022-12-13T04:44:37.080Z,95.25
2022-12-13T04:45:34.470Z,95.89
2022-12-13T04:46:34.414Z,95.78
2022-12-13T04:47:34.426Z,95.67
2022-12-13T04:48:34.388Z,95.47
2022-12-13T04:49:34.407Z,95.10
2022-12-13T04:50:34.385Z,94.51
2022-12-13T04:51:34.390Z,94.93
2022-12-13T04:52:34.366Z,94.82
2022-12-13T04:53:34.381Z,94.51
2022-12-13T04:54:36.535Z,94.62
2022-12-13T04:55:34.342Z,94.29
2022-12-13T04:56:34.338Z,95.04
2022-12-13T04:57:34.352Z,95.04
2022-12-13T04:58:34.327Z,94.72
2022-12-13T04:59:34.327Z,94.29
2022-12-13T05:00:34.321Z,94.29
2022-12-13T05:01:34.392Z,94.09
2022-12-13T05:02:34.324Z,94.29
2022-12-13T05:03:34.301Z,93.83
2022-12-13T05:04:34.295Z,93.55
2022-12-13T05:05:34.285Z,93.66
2022-12-13T05:06:34.279Z,93.76
2022-12-13T05:07:34.295Z,93.98
2022-12-13T05:08:35.332Z,93.55
2022-12-13T05:09:34.264Z,93.49
2022-12-13T05:10:37.969Z,93.55
2022-12-13T05:11:35.494Z,94.23
2022-12-13T05:12:34.240Z,93.91
2022-12-13T05:13:34.276Z,94.34
2022-12-13T05:14:34.245Z,95.08
2022-12-13T05:15:34.225Z,94.72
2022-12-13T05:16:34.254Z,95.08
2022-12-13T05:17:34.208Z,94.65
2022-12-13T05:18:34.195Z,95.19
2022-12-13T05:19:34.208Z,94.87
2022-12-13T05:20:34.198Z,94.91
2022-12-13T05:21:34.180Z,94.91
2022-12-13T05:22:34.185Z,94.87
2022-12-13T05:23:34.169Z,94.81
2022-12-13T05:24:34.164Z,94.02
2022-12-13T05:25:34.154Z,94.65
2022-12-13T05:26:34.155Z,94.23
2022-12-13T05:27:34.145Z,94.23
2022-12-13T05:28:34.135Z,94.70
2022-12-13T05:29:34.141Z,95.44
2022-12-13T05:30:34.117Z,95.87
2022-12-13T05:31:34.140Z,95.65
2022-12-13T05:32:42.511Z,95.12
2022-12-13T05:33:35.120Z,95.02
2022-12-13T05:34:34.097Z,95.55
2022-12-13T05:35:34.104Z,95.65
2022-12-13T05:36:34.081Z,95.72
2022-12-13T05:37:34.853Z,95.44
2022-12-13T05:38:34.089Z,95.12
2022-12-13T05:39:34.062Z,94.70
2022-12-13T05:40:34.054Z,95.34
2022-12-13T05:41:34.048Z,94.91
2022-12-13T05:42:34.045Z,94.59
2022-12-13T05:43:42.116Z,94.70
2022-12-13T05:44:35.031Z,95.02
2022-12-13T05:45:34.073Z,94.59
2022-12-13T05:46:38.399Z,94.91
2022-12-13T05:47:35.014Z,94.45
2022-12-13T05:48:34.028Z,94.17
2022-12-13T05:49:33.995Z,94.49
2022-12-13T05:50:33.989Z,94.91
2022-12-13T05:51:33.983Z,94.70
2022-12-13T05:52:33.984Z,94.95
2022-12-13T05:53:33.982Z,95.28
2022-12-13T05:54:33.990Z,95.02
2022-12-13T05:55:33.996Z,95.70
2022-12-13T05:56:33.961Z,95.97
2022-12-13T05:57:34.204Z,96.40
2022-12-13T05:58:35.578Z,96.08
2022-12-13T05:59:33.951Z,95.87
2022-12-13T06:00:33.942Z,95.12
2022-12-13T06:01:33.949Z,95.44
2022-12-13T06:02:34.004Z,94.65
2022-12-13T06:03:34.002Z,94.65
2022-12-13T06:04:33.905Z,94.45
2022-12-13T06:05:33.906Z,94.06
2022-12-13T06:06:33.901Z,93.70
2022-12-13T06:07:33.939Z,93.59
2022-12-13T06:08:33.949Z,94.17
2022-12-13T06:09:33.900Z,94.27
2022-12-13T06:10:35.595Z,94.38
2022-12-13T06:11:33.867Z,94.70
2022-12-13T06:12:33.856Z,94.65
2022-12-13T06:13:33.850Z,94.55
2022-12-13T06:14:34.856Z,93.70
2022-12-13T06:15:34.769Z,93.85
2022-12-13T06:16:33.858Z,94.17
2022-12-13T06:17:33.823Z,94.06
2022-12-13T06:18:33.811Z,94.06
2022-12-13T06:19:33.837Z,94.06
2022-12-13T06:20:33.802Z,94.17
2022-12-13T06:21:43.854Z,94.17
2022-12-13T06:22:34.794Z,94.06
2022-12-13T06:23:33.787Z,94.38
2022-12-13T06:24:33.779Z,94.91
2022-12-13T06:25:33.787Z,95.12
2022-12-13T06:26:33.787Z,94.38
2022-12-13T06:27:33.776Z,94.17
2022-12-13T06:28:33.776Z,94.12
2022-12-13T06:29:33.751Z,94.06
2022-12-13T06:30:33.777Z,93.21
2022-12-13T06:31:33.738Z,93.79
2022-12-13T06:32:33.748Z,94.59
2022-12-13T06:33:33.743Z,94.81
2022-12-13T06:34:33.741Z,94.70
2022-12-13T06:35:36.638Z,94.70
2022-12-13T06:36:33.698Z,94.17
2022-12-13T06:37:33.692Z,97.42
2022-12-13T06:38:33.692Z,99.99
2022-12-13T06:39:34.039Z,99.99
2022-12-13T06:40:33.675Z,99.99
2022-12-13T06:41:33.676Z,97.98
2022-12-13T06:42:33.664Z,90.08
2022-12-13T06:43:33.660Z,87.37
2022-12-13T06:44:33.650Z,87.45
2022-12-13T06:45:33.672Z,88.09
2022-12-13T06:46:33.680Z,88.65
2022-12-13T06:47:33.640Z,88.06
2022-12-13T06:48:33.634Z,88.06
2022-12-13T06:49:33.625Z,88.48
2022-12-13T06:50:33.653Z,88.70
2022-12-13T06:51:33.687Z,88.17
2022-12-13T06:52:33.598Z,88.52
2022-12-13T06:53:33.601Z,89.05
2022-12-13T06:54:33.588Z,89.73
2022-12-13T06:55:33.581Z,90.11
2022-12-13T06:56:33.593Z,90.37
2022-12-13T06:57:33.585Z,90.26
2022-12-13T06:58:33.621Z,90.41
2022-12-13T06:59:33.565Z,91.79
2022-12-13T07:00:36.913Z,92.07
2022-12-13T07:01:37.538Z,91.32
2022-12-13T07:02:33.677Z,91.53
2022-12-13T07:03:33.600Z,90.30
2022-12-13T07:04:33.540Z,90.45
2022-12-13T07:05:33.539Z,91.83
2022-12-13T07:06:33.514Z,91.51
2022-12-13T07:07:33.526Z,91.72
2022-12-13T07:08:33.545Z,92.04
2022-12-13T07:09:33.495Z,91.51
2022-12-13T07:10:33.502Z,91.08
2022-12-13T07:11:33.553Z,91.41
2022-12-13T07:12:33.471Z,91.47
2022-12-13T07:13:33.477Z,91.79
2022-12-13T07:14:41.051Z,91.58
2022-12-13T07:15:34.494Z,90.52
2022-12-13T07:16:33.446Z,90.34
2022-12-13T07:17:34.605Z,91.51
2022-12-13T07:18:33.429Z,91.41
2022-12-13T07:19:35.480Z,91.55
2022-12-13T07:20:33.440Z,91.72
2022-12-13T07:21:33.425Z,92.04
2022-12-13T07:22:34.826Z,91.94
2022-12-13T07:23:33.406Z,91.94
2022-12-13T07:24:33.388Z,92.04
2022-12-13T07:25:33.393Z,92.14
2022-12-13T07:26:33.396Z,92.08
2022-12-13T07:27:33.380Z,91.77
2022-12-13T07:28:33.366Z,92.19
2022-12-13T07:29:33.356Z,93.15
2022-12-13T07:30:33.376Z,94.10
2022-12-13T07:31:33.391Z,93.15
2022-12-13T07:32:33.337Z,93.46
2022-12-13T07:33:40.348Z,93.79
2022-12-13T07:34:33.330Z,93.99
2022-12-13T07:35:37.520Z,93.46
2022-12-13T07:36:33.324Z,93.68
2022-12-13T07:37:33.324Z,93.46
2022-12-13T07:38:33.303Z,93.79
2022-12-13T07:39:33.310Z,93.46
2022-12-13T07:40:33.323Z,92.61
2022-12-13T07:41:33.296Z,93.04
2022-12-13T07:42:33.276Z,92.83
2022-12-13T07:43:33.282Z,93.08
2022-12-13T07:44:33.267Z,93.51
2022-12-13T07:45:33.254Z,93.51
2022-12-13T07:46:34.030Z,93.51
2022-12-13T07:47:33.275Z,92.76
2022-12-13T07:48:33.238Z,92.97
2022-12-13T07:49:33.224Z,93.08
2022-12-13T07:50:36.866Z,93.55
2022-12-13T07:51:33.213Z,93.72
2022-12-13T07:52:33.219Z,93.93
2022-12-13T07:53:33.583Z,93.93
2022-12-13T07:54:33.231Z,93.51
2022-12-13T07:55:33.955Z,94.15
2022-12-13T07:56:33.180Z,93.51
2022-12-13T07:57:33.184Z,93.19
2022-12-13T07:58:33.191Z,94.04
2022-12-13T07:59:33.232Z,93.72
2022-12-13T08:00:33.276Z,93.51
2022-12-13T08:01:33.179Z,93.40
2022-12-13T08:02:33.149Z,93.15
2022-12-13T08:03:33.145Z,93.25
2022-12-13T08:04:38.196Z,93.04
2022-12-13T08:05:38.515Z,92.40
2022-12-13T08:06:33.120Z,92.93
2022-12-13T08:07:33.123Z,92.51
2022-12-13T08:08:33.157Z,92.55
2022-12-13T08:09:33.107Z,92.66
2022-12-13T08:10:33.113Z,92.93
2022-12-13T08:11:33.092Z,93.57
